Time;durP1;ratioP1;P1;durP2;ratioP2;P2;SDS_P1;SDS_P2;PMS_P1;PMS_P2;Temp;Humidity;BMP_temperature;BMP_pressure;BME280_temperature;BME280_humidity;BME280_pressure;Samples;Min_cycle;Max_cycle;Signal;HPM_P1;HPM_P2
2022/04/22 00:02:18;;;;;;;10.30;6.57;;;10.30;72.30;;;;;;5015266;28;20852;-80
2022/04/22 00:04:44;;;;;;;8.83;5.43;;;10.30;72.40;;;;;;5019428;28;20506;-78
2022/04/22 00:07:10;;;;;;;11.23;6.27;;;10.20;72.60;;;;;;5018381;28;20273;-78
2022/04/22 00:09:36;;;;;;;8.70;5.83;;;10.20;72.60;;;;;;5016647;28;20432;-78
2022/04/22 00:12:02;;;;;;;10.10;5.80;;;10.20;72.70;;;;;;5018583;28;20170;-79
2022/04/22 00:14:28;;;;;;;11.30;6.20;;;10.20;72.90;;;;;;5024884;28;20182;-79
2022/04/22 00:16:53;;;;;;;15.30;6.70;;;10.10;73.30;;;;;;5024543;28;20441;-77
2022/04/22 00:19:19;;;;;;;14.80;6.53;;;10.10;73.70;;;;;;5037749;28;20417;-78
2022/04/22 00:21:47;;;;;;;10.23;5.93;;;10.00;74.00;;;;;;5036816;28;20249;-78
2022/04/22 00:24:14;;;;;;;12.03;6.30;;;10.00;74.30;;;;;;5033796;28;20433;-77
2022/04/22 00:26:40;;;;;;;15.50;6.27;;;9.90;74.60;;;;;;5027256;28;20554;-78
2022/04/22 00:29:07;;;;;;;10.23;6.57;;;9.90;74.80;;;;;;5020600;28;20417;-78
2022/04/22 00:31:33;;;;;;;11.23;6.37;;;9.90;74.90;;;;;;5017203;28;20463;-77
2022/04/22 00:33:59;;;;;;;12.37;6.17;;;9.80;74.90;;;;;;5018682;28;20421;-79
2022/04/22 00:36:24;;;;;;;12.33;7.53;;;9.80;75.10;;;;;;5025859;28;20434;-78
2022/04/22 00:38:50;;;;;;;11.70;7.10;;;9.80;75.20;;;;;;5018062;28;20212;-78
2022/04/22 00:41:16;;;;;;;13.10;7.60;;;9.70;75.40;;;;;;5029772;28;20173;-80
2022/04/22 00:43:50;;;;;;;15.13;6.93;;;9.70;75.80;;;;;;5024990;28;20189;-78
2022/04/22 00:46:17;;;;;;;13.00;6.40;;;9.70;75.80;;;;;;5019493;28;20208;-79
2022/04/22 00:48:43;;;;;;;12.43;6.73;;;9.60;76.20;;;;;;5024056;28;20583;-78
2022/04/22 00:51:10;;;;;;;9.83;6.83;;;9.60;76.20;;;;;;5023830;28;20417;-78
2022/04/22 00:53:38;;;;;;;14.53;7.10;;;9.60;76.40;;;;;;5017042;28;20444;-77
2022/04/22 00:56:07;;;;;;;12.80;7.07;;;9.50;76.70;;;;;;5017030;28;20420;-78
2022/04/22 00:58:37;;;;;;;10.30;6.30;;;9.50;76.80;;;;;;5019259;28;20531;-78
2022/04/22 01:01:02;;;;;;;13.57;6.53;;;9.40;77.10;;;;;;5016305;28;20441;-78
2022/04/22 01:03:28;;;;;;;12.87;7.40;;;9.40;77.10;;;;;;5030221;28;20468;-78
2022/04/22 01:11:27;;;;;;;12.90;7.50;;;9.30;77.60;;;;;;5028633;28;20424;-77
2022/04/22 01:13:54;;;;;;;11.27;7.03;;;9.30;77.60;;;;;;5028062;28;20424;-79
2022/04/22 01:16:19;;;;;;;10.70;6.77;;;9.30;77.80;;;;;;5027919;28;20511;-79
2022/04/22 01:18:45;;;;;;;13.47;6.83;;;9.30;78.00;;;;;;5024416;28;20440;-77
2022/04/22 01:21:11;;;;;;;12.63;7.13;;;9.30;78.10;;;;;;5024140;28;20178;-78
2022/04/22 01:23:37;;;;;;;13.90;7.70;;;9.30;78.10;;;;;;5021276;28;20653;-77
2022/04/22 01:26:03;;;;;;;14.10;7.97;;;9.30;78.00;;;;;;5021871;28;20478;-78
2022/04/22 01:28:29;;;;;;;16.87;8.17;;;9.30;78.00;;;;;;5032380;28;20216;-78
2022/04/22 01:30:57;;;;;;;10.70;7.17;;;9.30;78.30;;;;;;5019948;28;20421;-77
2022/04/22 01:33:23;;;;;;;13.83;7.93;;;9.20;78.40;;;;;;5022391;28;20182;-78
2022/04/22 01:35:48;;;;;;;12.70;7.83;;;9.20;78.70;;;;;;5039440;28;21010;-78
2022/04/22 01:38:14;;;;;;;14.80;8.00;;;9.10;78.90;;;;;;5031401;28;20444;-78
2022/04/22 01:40:40;;;;;;;13.07;8.40;;;9.10;79.20;;;;;;5028861;28;20189;-78
2022/04/22 01:43:06;;;;;;;24.13;9.27;;;9.10;79.20;;;;;;5019136;28;20543;-77
2022/04/22 01:45:32;;;;;;;12.57;7.83;;;9.10;79.30;;;;;;5014551;28;20194;-77
2022/04/22 01:47:57;;;;;;;15.03;9.30;;;9.00;79.50;;;;;;5020642;28;20224;-78
2022/04/22 01:50:23;;;;;;;14.63;8.60;;;9.10;79.30;;;;;;5028888;28;20435;-78
2022/04/22 01:52:49;;;;;;;13.23;7.50;;;9.00;79.70;;;;;;5030752;28;20178;-78
2022/04/22 01:55:15;;;;;;;12.57;6.67;;;9.00;79.70;;;;;;5036189;28;20178;-78
2022/04/22 01:57:41;;;;;;;13.40;7.90;;;9.00;79.70;;;;;;5021451;28;20206;-78
2022/04/22 02:00:08;;;;;;;14.90;7.87;;;9.00;79.70;;;;;;5015918;28;20439;-78
2022/04/22 02:02:34;;;;;;;16.13;9.10;;;8.90;79.70;;;;;;5015199;28;20428;-79
2022/04/22 02:05:00;;;;;;;13.67;8.50;;;8.90;80.30;;;;;;5021982;28;20522;-78
2022/04/22 02:07:26;;;;;;;18.03;9.00;;;8.90;80.30;;;;;;5020068;28;20480;-78
2022/04/22 02:09:52;;;;;;;15.07;9.37;;;8.90;80.20;;;;;;5036742;28;20417;-78
2022/04/22 02:12:18;;;;;;;17.10;8.40;;;8.90;80.50;;;;;;5033730;28;20205;-77
2022/04/22 02:14:43;;;;;;;20.93;8.70;;;8.80;80.60;;;;;;5030331;28;20499;-77
2022/04/22 02:17:09;;;;;;;16.10;9.70;;;8.80;80.80;;;;;;5034579;28;20197;-78
2022/04/22 02:19:35;;;;;;;16.73;9.00;;;8.80;80.80;;;;;;5034193;28;20228;-78
2022/04/22 02:22:01;;;;;;;15.57;8.40;;;8.70;80.90;;;;;;5032656;28;20206;-78
2022/04/22 02:24:27;;;;;;;19.00;9.37;;;8.70;81.20;;;;;;5029558;28;20185;-77
2022/04/22 02:29:40;;;;;;;17.37;9.77;;;8.60;81.70;;;;;;5014293;28;20265;-77
2022/04/22 02:32:06;;;;;;;18.87;10.57;;;8.60;81.90;;;;;;5019684;28;20520;-77
2022/04/22 02:34:32;;;;;;;17.30;10.70;;;8.50;82.20;;;;;;5013668;28;20432;-79
2022/04/22 02:36:58;;;;;;;20.60;11.30;;;8.50;82.50;;;;;;5023283;28;21009;-79
2022/04/22 02:39:23;;;;;;;15.57;9.03;;;8.50;82.50;;;;;;5025817;28;20193;-78
2022/04/22 02:47:18;;;;;;;17.20;9.77;;;8.40;82.80;;;;;;5039386;28;20469;-79
2022/04/22 02:49:44;;;;;;;16.40;9.40;;;8.30;83.30;;;;;;5035914;28;20428;-79
2022/04/22 02:52:14;;;;;;;16.23;8.93;;;8.20;83.60;;;;;;5036055;28;20492;-78
2022/04/22 02:54:41;;;;;;;17.10;9.50;;;8.10;84.00;;;;;;5031846;28;20444;-78
2022/04/22 02:57:07;;;;;;;17.90;9.50;;;8.10;84.10;;;;;;5037880;28;20446;-78
2022/04/22 02:59:34;;;;;;;24.60;11.00;;;8.00;84.40;;;;;;5043227;28;20428;-79
2022/04/22 03:01:59;;;;;;;18.80;11.17;;;8.00;84.60;;;;;;5033993;28;20514;-77
2022/04/22 03:04:26;;;;;;;24.23;11.33;;;7.90;85.00;;;;;;5033386;28;20428;-76
2022/04/22 03:06:54;;;;;;;21.13;10.77;;;7.90;85.20;;;;;;5031270;28;20473;-78
2022/04/22 03:09:19;;;;;;;17.93;10.60;;;7.80;85.30;;;;;;5024190;28;20607;-78
2022/04/22 03:11:45;;;;;;;17.17;9.67;;;7.80;85.50;;;;;;5020735;28;20423;-78
2022/04/22 03:14:11;;;;;;;19.87;9.90;;;7.80;85.50;;;;;;5015492;28;20174;-77
2022/04/22 03:16:37;;;;;;;18.00;10.87;;;7.70;85.60;;;;;;5018274;28;20208;-76
2022/04/22 03:19:02;;;;;;;20.73;10.50;;;7.70;85.70;;;;;;5012762;28;20194;-78
2022/04/22 03:21:28;;;;;;;21.47;10.93;;;7.60;86.00;;;;;;5017275;28;20613;-79
2022/04/22 03:23:54;;;;;;;20.27;10.33;;;7.50;86.30;;;;;;5012379;28;20186;-77
2022/04/22 03:26:19;;;;;;;22.30;10.80;;;7.40;86.60;;;;;;5011895;28;20217;-77
2022/04/22 03:28:46;;;;;;;23.77;11.57;;;7.40;86.90;;;;;;5013602;28;20217;-76
2022/04/22 03:31:12;;;;;;;21.13;12.30;;;7.40;87.00;;;;;;5014539;28;20540;-76
2022/04/22 03:33:39;;;;;;;23.47;12.37;;;7.30;87.30;;;;;;5013370;28;20496;-77
2022/04/22 03:36:04;;;;;;;22.73;11.87;;;7.30;87.40;;;;;;5021148;28;20841;-78
2022/04/22 03:38:30;;;;;;;21.30;12.07;;;7.30;87.60;;;;;;5012345;28;20536;-77
2022/04/22 03:40:56;;;;;;;21.70;10.70;;;7.20;87.70;;;;;;5018537;28;20185;-78
2022/04/22 03:43:24;;;;;;;26.27;12.80;;;7.20;87.80;;;;;;5021986;28;20359;-78
2022/04/22 03:45:50;;;;;;;18.93;11.37;;;7.20;88.10;;;;;;5024335;28;20178;-78
2022/04/22 03:48:15;;;;;;;22.37;11.17;;;7.10;88.30;;;;;;5016035;28;20710;-78
2022/04/22 03:50:42;;;;;;;22.80;11.67;;;7.10;88.40;;;;;;5017857;28;20186;-77
2022/04/22 03:53:11;;;;;;;20.80;12.20;;;7.10;88.60;;;;;;5016771;28;20927;-78
2022/04/22 03:55:38;;;;;;;24.67;12.23;;;7.10;88.70;;;;;;5019003;28;20429;-77
2022/04/22 03:58:10;;;;;;;28.73;13.33;;;7.00;89.00;;;;;;5017539;28;20539;-78
2022/04/22 04:00:42;;;;;;;22.70;12.40;;;7.00;89.20;;;;;;5025914;28;20427;-78
2022/04/22 04:03:09;;;;;;;20.30;12.30;;;7.00;89.20;;;;;;5018142;28;20428;-78
2022/04/22 04:05:36;;;;;;;27.63;14.57;;;7.00;89.50;;;;;;5027271;28;20474;-78
2022/04/22 04:08:02;;;;;;;28.90;13.97;;;7.00;89.50;;;;;;5017757;28;20483;-76
2022/04/22 04:15:59;;;;;;;23.90;13.00;;;6.90;89.60;;;;;;5015398;28;20411;-77
2022/04/22 04:18:31;;;;;;;26.93;13.20;;;6.80;89.70;;;;;;5010590;28;20444;-77
2022/04/22 04:23:43;;;;;;;24.87;13.07;;;6.80;90.00;;;;;;5018419;28;20463;-78
2022/04/22 04:26:09;;;;;;;29.43;13.77;;;6.80;90.10;;;;;;5017127;28;20440;-79
2022/04/22 04:28:35;;;;;;;27.83;14.07;;;6.70;90.20;;;;;;5025238;28;20476;-78
2022/04/22 04:31:02;;;;;;;25.30;13.90;;;6.80;90.20;;;;;;5025303;28;20421;-78
2022/04/22 04:33:29;;;;;;;28.80;14.70;;;6.80;90.40;;;;;;5017455;28;20425;-79
2022/04/22 04:35:55;;;;;;;33.90;17.40;;;6.80;90.40;;;;;;5017281;28;20417;-78
2022/04/22 04:38:22;;;;;;;30.60;15.13;;;6.80;90.40;;;;;;5014407;28;20484;-78
2022/04/22 04:40:48;;;;;;;27.80;15.80;;;6.70;90.40;;;;;;5013869;28;20472;-78
2022/04/22 04:43:14;;;;;;;33.90;16.40;;;6.80;90.60;;;;;;5015629;28;20428;-78
2022/04/22 04:45:40;;;;;;;29.83;16.17;;;6.80;90.60;;;;;;5012627;28;20430;-77
2022/04/22 04:48:07;;;;;;;34.60;18.10;;;6.80;90.60;;;;;;5020111;28;21129;-79
2022/04/22 04:50:33;;;;;;;28.30;15.30;;;6.80;90.40;;;;;;5017048;28;20493;-77
2022/04/22 04:52:58;;;;;;;30.87;15.90;;;6.90;90.50;;;;;;5021497;28;20956;-77
2022/04/22 04:55:25;;;;;;;32.83;16.53;;;6.90;90.30;;;;;;5016586;28;20193;-78
2022/04/22 04:57:51;;;;;;;31.70;15.80;;;6.90;90.20;;;;;;5017216;28;20214;-78
2022/04/22 05:00:20;;;;;;;30.90;16.00;;;6.90;90.20;;;;;;5025744;28;20439;-77
2022/04/22 05:02:47;;;;;;;35.50;16.10;;;6.90;90.30;;;;;;5033933;28;20212;-78
2022/04/22 05:05:13;;;;;;;32.27;16.67;;;6.90;90.20;;;;;;5028346;28;20483;-78
2022/04/22 05:07:57;;;;;;;33.03;15.97;;;6.90;90.30;;;;;;5017200;28;20919;-78
2022/04/22 05:10:28;;;;;;;38.70;17.40;;;6.90;90.30;;;;;;5012160;28;20904;-77
2022/04/22 05:12:54;;;;;;;35.33;17.30;;;7.00;90.30;;;;;;5015443;28;20421;-77
2022/04/22 05:15:24;;;;;;;34.60;15.20;;;7.00;90.30;;;;;;5017271;28;20835;-78
2022/04/22 05:17:51;;;;;;;38.87;17.43;;;7.10;90.40;;;;;;5020642;28;20499;-77
2022/04/22 05:20:19;;;;;;;33.83;15.70;;;7.10;90.30;;;;;;5020488;28;20425;-78
2022/04/22 05:22:45;;;;;;;38.80;18.37;;;7.20;90.20;;;;;;5016394;28;20435;-78
2022/04/22 05:25:13;;;;;;;35.20;16.33;;;7.30;90.00;;;;;;5022936;28;20417;-78
2022/04/22 05:27:39;;;;;;;35.90;17.00;;;7.40;89.70;;;;;;5019884;28;20213;-77
2022/04/22 05:32:51;;;;;;;33.97;16.63;;;7.50;89.00;;;;;;5011393;28;20840;-78
2022/04/22 05:35:22;;;;;;;41.03;17.90;;;7.60;88.90;;;;;;5028002;28;20715;-77
2022/04/22 05:37:49;;;;;;;37.93;18.37;;;7.70;88.40;;;;;;5032788;28;20236;-78
2022/04/22 05:40:17;;;;;;;39.10;17.73;;;7.70;88.30;;;;;;5040778;28;20417;-77
2022/04/22 05:42:43;;;;;;;39.90;18.30;;;7.80;87.80;;;;;;5028064;28;20534;-77
2022/04/22 05:45:10;;;;;;;44.83;18.77;;;7.90;87.70;;;;;;5022664;28;20420;-77
2022/04/22 05:47:36;;;;;;;39.00;19.43;;;7.90;87.40;;;;;;5022391;28;20891;-77
2022/04/22 05:50:04;;;;;;;34.90;17.83;;;7.90;87.00;;;;;;5017096;28;20427;-78
2022/04/22 05:52:32;;;;;;;38.23;19.20;;;8.00;87.00;;;;;;5014629;28;20437;-77
2022/04/22 05:54:58;;;;;;;39.47;18.30;;;8.10;86.90;;;;;;5015299;28;20417;-77
2022/04/22 05:57:25;;;;;;;40.97;19.40;;;8.10;86.90;;;;;;5020380;28;20450;-78
2022/04/22 05:59:51;;;;;;;36.60;18.00;;;8.20;86.50;;;;;;5014128;28;20188;-77
2022/04/22 06:02:18;;;;;;;39.53;19.53;;;8.20;86.30;;;;;;5018322;28;20793;-78
2022/04/22 06:04:43;;;;;;;37.53;18.70;;;8.30;85.90;;;;;;5014541;28;20216;-77
2022/04/22 06:07:09;;;;;;;38.67;19.23;;;8.30;85.60;;;;;;5017408;28;20507;-77
2022/04/22 06:12:19;;;;;;;41.27;20.07;;;8.50;85.20;;;;;;5019802;28;20195;-77
2022/04/22 06:14:46;;;;;;;37.67;18.53;;;8.50;85.00;;;;;;5031384;28;20417;-77
2022/04/22 06:17:12;;;;;;;36.10;18.70;;;8.50;84.90;;;;;;5037648;28;20198;-77
2022/04/22 06:19:38;;;;;;;40.07;19.53;;;8.60;84.90;;;;;;5035662;28;20455;-77
2022/04/22 06:22:04;;;;;;;43.83;20.73;;;8.60;84.40;;;;;;5032737;28;20433;-78
2022/04/22 06:24:30;;;;;;;42.13;20.67;;;8.60;84.30;;;;;;5028574;28;20436;-77
2022/04/22 06:26:56;;;;;;;39.27;20.63;;;8.70;84.10;;;;;;5020797;28;20475;-77
2022/04/22 06:29:22;;;;;;;40.03;20.70;;;8.70;84.00;;;;;;5012060;28;20444;-77
2022/04/22 06:31:48;;;;;;;35.77;18.60;;;8.80;83.80;;;;;;5017943;28;20197;-77
2022/04/22 06:34:14;;;;;;;40.77;19.57;;;8.80;83.80;;;;;;5015492;28;20946;-76
2022/04/22 06:36:40;;;;;;;42.33;19.83;;;8.90;83.40;;;;;;5021309;28;20531;-77
2022/04/22 06:39:06;;;;;;;38.43;19.03;;;9.00;83.10;;;;;;5013450;28;20186;-77
2022/04/22 06:47:12;;;;;;;37.60;19.67;;;9.10;82.20;;;;;;4994031;28;20498;-77
2022/04/22 06:49:38;;;;;;;40.63;19.50;;;9.10;82.20;;;;;;5019206;28;20566;-77
2022/04/22 06:52:06;;;;;;;43.63;21.10;;;9.10;82.20;;;;;;5020673;28;20775;-78
2022/04/22 06:54:33;;;;;;;41.57;20.70;;;9.10;82.20;;;;;;5016135;28;20468;-79
2022/04/22 06:57:00;;;;;;;41.93;20.17;;;9.10;82.20;;;;;;5020327;28;20463;-79
2022/04/22 06:59:26;;;;;;;41.93;20.80;;;9.10;82.10;;;;;;5020152;28;20443;-78
2022/04/22 07:01:52;;;;;;;38.03;19.30;;;9.20;82.10;;;;;;5014085;28;20428;-78
2022/04/22 07:04:19;;;;;;;47.17;20.57;;;9.10;82.10;;;;;;5014981;28;20444;-80
2022/04/22 07:06:45;;;;;;;44.43;19.60;;;9.20;82.10;;;;;;5022630;28;20471;-78
2022/04/22 07:09:12;;;;;;;40.10;19.40;;;9.30;81.90;;;;;;5019339;28;20425;-77
2022/04/22 07:11:42;;;;;;;43.60;21.10;;;9.30;81.40;;;;;;5017503;28;20784;-79
2022/04/22 07:14:08;;;;;;;42.23;21.20;;;9.30;81.40;;;;;;5024763;28;20450;-78
2022/04/22 07:16:34;;;;;;;42.80;20.37;;;9.30;81.50;;;;;;5019054;28;20436;-78
2022/04/22 07:19:00;;;;;;;41.30;20.80;;;9.40;81.50;;;;;;5021811;28;20926;-77
2022/04/22 07:21:27;;;;;;;38.83;20.50;;;9.50;81.20;;;;;;5023528;28;20835;-78
2022/04/22 07:23:58;;;;;;;41.87;21.63;;;9.50;80.90;;;;;;5021628;28;20508;-77
2022/04/22 07:26:25;;;;;;;42.23;21.10;;;9.40;81.10;;;;;;5025866;28;20939;-76
2022/04/22 07:28:52;;;;;;;45.30;21.87;;;9.40;81.50;;;;;;5013803;28;20445;-78
2022/04/22 07:31:21;;;;;;;45.73;20.90;;;9.30;81.70;;;;;;5022837;28;20439;-78
2022/04/22 07:33:47;;;;;;;37.50;20.50;;;9.40;81.70;;;;;;5021470;28;20420;-79
2022/04/22 07:36:13;;;;;;;43.57;20.63;;;9.40;81.40;;;;;;5024832;28;20435;-78
2022/04/22 07:38:39;;;;;;;37.97;20.73;;;9.50;81.40;;;;;;5020300;28;20468;-78
2022/04/22 07:41:07;;;;;;;44.60;20.40;;;9.60;81.10;;;;;;5019175;28;20417;-79
2022/04/22 07:49:05;;;;;;;41.57;19.53;;;9.90;79.70;;;;;;5024926;28;20423;-78
2022/04/22 07:51:31;;;;;;;44.37;22.43;;;9.80;79.70;;;;;;5018835;28;20432;-78
2022/04/22 07:53:57;;;;;;;42.20;21.27;;;9.90;80.00;;;;;;5019176;28;20425;-76
2022/04/22 07:56:23;;;;;;;40.63;21.10;;;9.80;80.30;;;;;;5023673;28;20432;-78
2022/04/22 07:58:50;;;;;;;43.60;21.07;;;9.80;80.30;;;;;;5027274;28;20251;-77
2022/04/22 08:01:16;;;;;;;42.20;21.80;;;9.90;80.20;;;;;;5025546;28;20860;-78
2022/04/22 08:03:41;;;;;;;41.77;19.90;;;9.90;80.30;;;;;;5024589;28;20530;-79
2022/04/22 08:06:07;;;;;;;39.10;20.73;;;10.10;79.70;;;;;;5028719;28;20280;-78
2022/04/22 08:08:33;;;;;;;38.80;21.53;;;10.30;78.70;;;;;;5021527;28;20210;-77
2022/04/22 08:10:59;;;;;;;43.30;20.97;;;10.30;78.70;;;;;;5022876;28;20200;-77
2022/04/22 08:13:26;;;;;;;36.30;20.00;;;10.30;79.00;;;;;;5026046;28;20417;-77
2022/04/22 08:15:52;;;;;;;39.63;21.30;;;10.40;78.90;;;;;;5028648;28;20189;-79
2022/04/22 08:18:17;;;;;;;42.90;22.03;;;10.50;78.00;;;;;;5031600;28;21083;-79
2022/04/22 08:20:43;;;;;;;33.37;19.33;;;10.40;78.00;;;;;;5019674;28;20432;-80
2022/04/22 08:23:09;;;;;;;39.67;19.60;;;10.60;77.40;;;;;;5024499;28;20652;-77
2022/04/22 08:25:35;;;;;;;39.73;19.60;;;10.70;76.80;;;;;;5018175;28;20652;-77
2022/04/22 08:28:03;;;;;;;37.30;19.50;;;10.60;76.80;;;;;;5023092;28;20220;-78
2022/04/22 08:30:29;;;;;;;44.07;19.67;;;10.60;76.80;;;;;;5026912;28;20436;-78
2022/04/22 08:32:56;;;;;;;42.80;20.57;;;10.80;76.70;;;;;;5028628;28;20424;-77
2022/04/22 08:35:21;;;;;;;39.57;22.27;;;10.80;76.10;;;;;;5032306;28;20429;-78
2022/04/22 08:37:47;;;;;;;35.53;19.83;;;10.90;76.20;;;;;;5034656;28;20518;-76
2022/04/22 08:40:14;;;;;;;36.37;19.20;;;10.90;76.20;;;;;;5034314;28;20433;-78
2022/04/22 08:42:41;;;;;;;39.37;19.23;;;11.00;75.40;;;;;;5026976;28;20216;-78
2022/04/22 08:45:09;;;;;;;36.23;20.20;;;11.00;75.50;;;;;;5022802;28;20535;-78
2022/04/22 08:50:20;;;;;;;39.97;20.83;;;11.20;74.60;;;;;;5022105;28;20440;-79
2022/04/22 08:52:57;;;;;;;36.37;20.20;;;11.40;73.90;;;;;;5020643;28;20424;-77
2022/04/22 08:55:25;;;;;;;33.23;18.53;;;11.40;73.30;;;;;;5018989;28;20245;-78
2022/04/22 08:57:51;;;;;;;35.70;20.20;;;11.40;73.50;;;;;;5014386;28;20543;-78
2022/04/22 09:00:22;;;;;;;34.67;19.00;;;11.60;73.20;;;;;;5016530;28;20432;-80
2022/04/22 09:02:48;;;;;;;34.70;18.03;;;11.70;73.00;;;;;;5019078;28;20432;-78
2022/04/22 09:05:14;;;;;;;35.80;19.60;;;11.80;72.60;;;;;;5028612;28;20450;-78
2022/04/22 09:07:43;;;;;;;29.00;17.50;;;11.90;71.70;;;;;;5025104;28;20500;-79
2022/04/22 09:10:11;;;;;;;36.77;20.10;;;11.80;72.30;;;;;;5018078;28;20424;-76
2022/04/22 09:12:37;;;;;;;30.60;17.47;;;11.70;72.00;;;;;;5013970;28;20753;-79
2022/04/22 09:15:03;;;;;;;34.43;19.53;;;11.80;72.10;;;;;;5020875;28;20429;-78
2022/04/22 09:17:32;;;;;;;35.33;19.27;;;12.00;71.60;;;;;;5016796;28;20453;-78
2022/04/22 09:20:01;;;;;;;32.50;17.80;;;12.10;71.30;;;;;;5026709;28;21282;-78
2022/04/22 09:22:29;;;;;;;35.20;18.80;;;12.20;71.00;;;;;;5018218;28;20440;-78
2022/04/22 09:24:59;;;;;;;36.80;18.57;;;12.40;70.40;;;;;;5023670;28;20927;-79
2022/04/22 09:27:43;;;;;;;35.70;18.70;;;12.50;69.90;;;;;;5018907;28;20483;-75
2022/04/22 09:30:12;;;;;;;31.53;18.37;;;12.50;69.80;;;;;;5015156;28;20412;-74
2022/04/22 09:32:40;;;;;;;32.03;17.57;;;12.30;70.20;;;;;;5019639;28;20434;-75
2022/04/22 09:35:08;;;;;;;32.60;18.73;;;12.30;70.40;;;;;;5012000;28;20421;-73
2022/04/22 09:43:39;;;;;;;31.37;17.40;;;12.60;69.40;;;;;;5013246;28;20667;-74
2022/04/22 09:46:05;;;;;;;27.87;16.90;;;12.70;69.20;;;;;;5001743;28;20451;-75
2022/04/22 09:48:44;;;;;;;34.43;18.13;;;12.90;69.10;;;;;;5016283;28;20495;-75
2022/04/22 09:51:24;;;;;;;33.57;17.93;;;13.20;68.20;;;;;;5022243;28;20428;-76
2022/04/22 09:54:10;;;;;;;30.00;17.60;;;13.30;67.60;;;;;;5017089;28;20536;-76
2022/04/22 09:56:38;;;;;;;30.67;17.50;;;13.30;66.60;;;;;;5016810;28;20587;-76
2022/04/22 09:59:27;;;;;;;31.20;18.40;;;13.30;67.20;;;;;;5018462;28;20436;-76
2022/04/22 10:01:53;;;;;;;29.87;17.60;;;13.30;67.20;;;;;;5022536;28;20421;-76
2022/04/22 10:04:21;;;;;;;34.10;17.23;;;13.40;66.90;;;;;;5018936;28;20436;-76
2022/04/22 10:06:48;;;;;;;29.70;17.23;;;13.50;66.40;;;;;;5020868;28;20476;-75
2022/04/22 10:09:14;;;;;;;32.53;16.30;;;13.60;66.00;;;;;;5017983;28;20512;-75
2022/04/22 10:11:41;;;;;;;27.93;16.00;;;13.70;66.30;;;;;;5026490;28;20420;-76
2022/04/22 10:14:09;;;;;;;30.07;17.37;;;13.80;65.60;;;;;;5024057;28;20440;-75
2022/04/22 10:16:36;;;;;;;24.80;16.23;;;13.90;65.30;;;;;;5026190;28;20412;-76
2022/04/22 10:19:02;;;;;;;30.50;17.67;;;13.90;65.00;;;;;;5031704;28;20985;-76
2022/04/22 10:21:29;;;;;;;27.27;16.53;;;13.80;65.00;;;;;;5025800;28;20427;-76
2022/04/22 10:23:56;;;;;;;29.50;16.83;;;13.90;65.30;;;;;;5030370;28;20432;-75
2022/04/22 10:26:22;;;;;;;29.20;16.10;;;14.10;64.40;;;;;;5026396;28;20420;-76
2022/04/22 10:28:48;;;;;;;26.80;16.47;;;14.30;64.10;;;;;;5022875;28;20543;-76
2022/04/22 10:31:15;;;;;;;28.73;16.90;;;14.30;63.90;;;;;;5031957;28;20503;-76
2022/04/22 10:33:43;;;;;;;29.50;16.40;;;14.40;63.80;;;;;;5030213;28;20497;-76
2022/04/22 10:36:16;;;;;;;25.43;15.13;;;14.40;63.80;;;;;;5031599;28;20436;-75
2022/04/22 10:38:44;;;;;;;27.57;16.37;;;14.90;62.80;;;;;;5026638;28;20544;-75
2022/04/22 10:41:49;;;;;;;24.33;14.70;;;15.30;61.70;;;;;;5025959;28;20436;-76
2022/04/22 10:47:15;;;;;;;28.00;16.83;;;15.80;59.20;;;;;;5026739;28;20990;-74
2022/04/22 10:49:45;;;;;;;26.00;16.13;;;16.00;58.90;;;;;;5028404;28;20413;-75
2022/04/22 10:52:18;;;;;;;24.37;15.70;;;16.40;57.80;;;;;;5025852;28;20417;-77
2022/04/22 10:54:52;;;;;;;24.97;14.80;;;16.40;57.20;;;;;;5026559;28;20428;-76
2022/04/22 10:57:21;;;;;;;26.73;15.00;;;16.40;57.70;;;;;;5027628;28;20578;-76
2022/04/22 11:00:11;;;;;;;24.80;15.80;;;16.30;57.40;;;;;;5025040;28;20423;-74
2022/04/22 11:02:41;;;;;;;25.17;15.27;;;16.10;58.10;;;;;;5026472;28;20428;-76
2022/04/22 11:05:19;;;;;;;28.70;16.20;;;16.30;57.80;;;;;;5032264;28;20437;-76
2022/04/22 11:07:51;;;;;;;27.70;17.50;;;16.20;57.80;;;;;;5026364;28;20509;-76
2022/04/22 11:10:21;;;;;;;30.63;15.80;;;16.30;57.60;;;;;;5017316;28;20460;-75
2022/04/22 11:12:53;;;;;;;25.43;16.17;;;16.60;57.20;;;;;;5027880;28;20427;-74
2022/04/22 11:15:46;;;;;;;33.40;15.03;;;16.40;57.40;;;;;;5027792;28;20463;-76
2022/04/22 11:18:17;;;;;;;25.83;15.03;;;16.60;57.60;;;;;;5031412;28;20473;-76
2022/04/22 11:20:52;;;;;;;25.37;15.43;;;16.80;57.00;;;;;;5026304;28;21314;-75
2022/04/22 11:23:17;;;;;;;25.00;15.50;;;16.90;56.20;;;;;;5024161;28;20422;-76
2022/04/22 11:25:44;;;;;;;23.67;14.20;;;16.90;56.90;;;;;;5022654;28;20429;-76
2022/04/22 11:28:10;;;;;;;27.47;15.50;;;17.30;55.70;;;;;;5006307;28;20206;-75
2022/04/22 11:30:37;;;;;;;21.90;14.70;;;17.40;54.80;;;;;;5011230;28;20430;-76
2022/04/22 11:33:13;;;;;;;22.97;15.33;;;17.50;54.10;;;;;;5016528;28;20497;-76
2022/04/22 11:35:40;;;;;;;27.57;15.33;;;17.40;54.40;;;;;;5009160;28;20432;-76
2022/04/22 11:38:06;;;;;;;25.03;15.70;;;17.60;54.40;;;;;;5017342;28;20966;-76
2022/04/22 11:40:37;;;;;;;30.40;15.73;;;17.70;54.10;;;;;;5015747;28;20439;-76
2022/04/22 11:43:10;;;;;;;26.93;15.80;;;17.30;54.80;;;;;;5018028;28;20417;-76
2022/04/22 11:45:39;;;;;;;26.03;16.00;;;17.20;55.70;;;;;;5025520;28;20497;-76
2022/04/22 11:48:09;;;;;;;24.50;15.33;;;17.10;56.00;;;;;;5022568;28;20501;-76
2022/04/22 11:50:44;;;;;;;27.63;15.53;;;17.30;55.60;;;;;;5033870;28;20455;-76
2022/04/22 11:53:15;;;;;;;32.40;17.17;;;17.60;54.00;;;;;;5029128;28;20431;-76
2022/04/22 11:55:42;;;;;;;23.20;14.40;;;17.40;54.00;;;;;;5016090;28;20521;-76
2022/04/22 11:58:09;;;;;;;24.23;14.93;;;17.10;54.90;;;;;;5015883;28;20839;-76
2022/04/22 12:06:15;;;;;;;24.17;15.13;;;18.20;52.20;;;;;;5020929;28;20433;-77
2022/04/22 12:09:04;;;;;;;23.97;15.40;;;18.50;51.30;;;;;;5015229;28;20441;-76
2022/04/22 12:11:29;;;;;;;24.60;15.13;;;18.70;50.90;;;;;;5023943;28;20454;-75
2022/04/22 12:13:56;;;;;;;27.70;14.57;;;18.70;51.00;;;;;;5013402;28;20455;-77
2022/04/22 12:16:23;;;;;;;19.60;13.40;;;18.70;51.30;;;;;;5015379;28;20194;-76
2022/04/22 12:18:50;;;;;;;22.67;15.27;;;18.90;50.70;;;;;;5013730;28;20438;-76
2022/04/22 12:21:18;;;;;;;25.40;15.00;;;18.70;50.90;;;;;;5014011;28;20851;-77
2022/04/22 12:23:48;;;;;;;20.93;14.73;;;18.70;50.70;;;;;;5014150;28;20422;-76
2022/04/22 12:26:21;;;;;;;20.93;12.93;;;18.70;51.00;;;;;;5016374;28;20876;-76
2022/04/22 12:29:22;;;;;;;24.80;14.93;;;18.70;51.40;;;;;;5015151;28;20967;-76
2022/04/22 12:31:54;;;;;;;24.33;14.00;;;18.50;51.30;;;;;;5017318;28;20459;-76
2022/04/22 12:34:28;;;;;;;19.67;13.47;;;18.50;50.90;;;;;;5017579;28;20407;-77
2022/04/22 12:36:54;;;;;;;23.77;14.83;;;18.70;50.60;;;;;;5020470;28;21237;-76
2022/04/22 12:39:42;;;;;;;26.07;15.17;;;18.80;50.70;;;;;;5017692;28;20412;-76
2022/04/22 12:42:17;;;;;;;24.40;16.93;;;19.00;49.90;;;;;;5013930;28;20184;-77
2022/04/22 12:53:31;;;;;;;21.40;14.57;;;19.40;49.40;;;;;;5018617;28;20517;-76
2022/04/22 12:56:07;;;;;;;19.13;13.63;;;19.50;49.00;;;;;;5010448;28;20893;-76
2022/04/22 12:58:49;;;;;;;25.27;14.37;;;19.40;49.00;;;;;;5019773;28;20456;-75
2022/04/22 13:01:29;;;;;;;20.37;13.00;;;19.40;49.30;;;;;;5018094;28;20413;-76
2022/04/22 13:03:57;;;;;;;18.87;13.03;;;19.80;48.20;;;;;;5008473;28;20416;-76
2022/04/22 13:06:36;;;;;;;20.53;13.67;;;19.80;47.80;;;;;;5011719;28;20451;-73
2022/04/22 13:09:02;;;;;;;20.07;13.73;;;19.80;48.20;;;;;;5016802;28;20455;-73
2022/04/22 13:11:28;;;;;;;17.77;12.07;;;20.00;47.70;;;;;;5022302;28;20447;-72
2022/04/22 13:13:54;;;;;;;20.53;12.73;;;20.20;47.10;;;;;;5018151;28;20548;-72
2022/04/22 13:16:19;;;;;;;19.30;11.87;;;20.50;46.50;;;;;;5015934;28;20682;-72
2022/04/22 13:18:45;;;;;;;23.03;13.00;;;20.00;47.00;;;;;;5019398;28;20208;-71
2022/04/22 13:21:11;;;;;;;19.93;12.20;;;19.60;47.70;;;;;;5012775;28;20201;-72
2022/04/22 13:23:36;;;;;;;21.33;12.20;;;19.40;47.50;;;;;;5011770;28;20652;-71
2022/04/22 13:26:03;;;;;;;24.03;13.90;;;19.00;48.50;;;;;;5010244;28;20192;-73
2022/04/22 13:28:29;;;;;;;23.17;13.27;;;19.00;48.70;;;;;;5011224;28;20470;-71
2022/04/22 13:30:55;;;;;;;23.10;14.07;;;19.00;49.10;;;;;;5011694;28;20524;-71
2022/04/22 13:33:21;;;;;;;24.77;14.90;;;19.30;48.70;;;;;;5011871;28;20189;-72
2022/04/22 13:35:46;;;;;;;22.33;14.20;;;19.70;47.90;;;;;;5018852;28;20425;-72
2022/04/22 13:38:12;;;;;;;19.90;12.60;;;19.70;47.30;;;;;;5019424;28;20321;-74
2022/04/22 13:40:38;;;;;;;15.73;10.67;;;19.60;47.30;;;;;;5020286;28;20285;-73
2022/04/22 13:43:04;;;;;;;15.97;11.00;;;19.90;46.90;;;;;;5020669;28;20188;-75
2022/04/22 13:53:42;;;;;;;18.10;12.17;;;20.50;45.90;;;;;;5014159;28;20475;-73